sensor_id;sensor_type;location;lat;lon;timestamp;P1;durP1;ratioP1;P2;durP2;ratioP2
19024;SDS011;9645;51.448;6.260;2023-09-08T00:02:12;16.80;;;10.27;;
19024;SDS011;9645;51.448;6.260;2023-09-08T00:04:43;23.43;;;10.93;;
19024;SDS011;9645;51.448;6.260;2023-09-08T00:07:10;17.23;;;10.00;;
19024;SDS011;9645;51.448;6.260;2023-09-08T00:09:36;24.90;;;11.10;;
19024;SDS011;9645;51.448;6.260;2023-09-08T00:12:04;13.67;;;9.63;;
19024;SDS011;9645;51.448;6.260;2023-09-08T00:14:31;24.23;;;9.87;;
19024;SDS011;9645;51.448;6.260;2023-09-08T00:16:58;16.70;;;9.77;;
19024;SDS011;9645;51.448;6.260;2023-09-08T00:19:25;14.30;;;8.90;;
19024;SDS011;9645;51.448;6.260;2023-09-08T00:21:53;14.03;;;9.03;;
19024;SDS011;9645;51.448;6.260;2023-09-08T00:24:20;15.40;;;9.37;;
19024;SDS011;9645;51.448;6.260;2023-09-08T00:26:47;17.90;;;9.87;;
19024;SDS011;9645;51.448;6.260;2023-09-08T00:29:14;11.93;;;8.10;;
19024;SDS011;9645;51.448;6.260;2023-09-08T00:31:41;14.80;;;9.57;;
19024;SDS011;9645;51.448;6.260;2023-09-08T00:34:08;14.00;;;9.37;;
19024;SDS011;9645;51.448;6.260;2023-09-08T00:36:36;14.83;;;10.00;;
19024;SDS011;9645;51.448;6.260;2023-09-08T00:39:04;15.10;;;9.50;;
19024;SDS011;9645;51.448;6.260;2023-09-08T00:41:31;14.77;;;9.57;;
19024;SDS011;9645;51.448;6.260;2023-09-08T00:43:58;21.40;;;10.70;;
19024;SDS011;9645;51.448;6.260;2023-09-08T00:46:25;16.67;;;10.17;;
19024;SDS011;9645;51.448;6.260;2023-09-08T00:48:53;17.50;;;11.17;;
19024;SDS011;9645;51.448;6.260;2023-09-08T00:51:20;14.70;;;10.23;;
19024;SDS011;9645;51.448;6.260;2023-09-08T00:53:48;15.47;;;10.60;;
19024;SDS011;9645;51.448;6.260;2023-09-08T00:56:17;16.33;;;10.93;;
19024;SDS011;9645;51.448;6.260;2023-09-08T00:58:44;15.83;;;10.57;;
19024;SDS011;9645;51.448;6.260;2023-09-08T01:01:13;18.37;;;9.80;;
19024;SDS011;9645;51.448;6.260;2023-09-08T01:03:42;15.77;;;10.13;;
19024;SDS011;9645;51.448;6.260;2023-09-08T01:06:09;16.07;;;10.57;;
19024;SDS011;9645;51.448;6.260;2023-09-08T01:08:37;18.73;;;10.07;;
19024;SDS011;9645;51.448;6.260;2023-09-08T01:11:04;14.27;;;9.60;;
19024;SDS011;9645;51.448;6.260;2023-09-08T01:13:33;14.90;;;9.10;;
19024;SDS011;9645;51.448;6.260;2023-09-08T01:16:00;16.70;;;10.70;;
19024;SDS011;9645;51.448;6.260;2023-09-08T01:18:27;14.63;;;9.53;;
19024;SDS011;9645;51.448;6.260;2023-09-08T01:21:06;15.00;;;9.70;;
19024;SDS011;9645;51.448;6.260;2023-09-08T01:23:59;17.13;;;9.47;;
19024;SDS011;9645;51.448;6.260;2023-09-08T01:26:44;17.10;;;10.20;;
19024;SDS011;9645;51.448;6.260;2023-09-08T01:29:11;19.60;;;9.60;;
19024;SDS011;9645;51.448;6.260;2023-09-08T01:31:41;13.23;;;9.20;;
19024;SDS011;9645;51.448;6.260;2023-09-08T01:34:08;12.87;;;8.93;;
19024;SDS011;9645;51.448;6.260;2023-09-08T01:36:35;15.97;;;9.87;;
19024;SDS011;9645;51.448;6.260;2023-09-08T01:39:02;16.17;;;9.97;;
19024;SDS011;9645;51.448;6.260;2023-09-08T01:41:29;16.77;;;9.70;;
19024;SDS011;9645;51.448;6.260;2023-09-08T01:43:58;15.00;;;9.97;;
19024;SDS011;9645;51.448;6.260;2023-09-08T01:46:30;16.33;;;10.87;;
19024;SDS011;9645;51.448;6.260;2023-09-08T01:48:57;17.07;;;10.33;;
19024;SDS011;9645;51.448;6.260;2023-09-08T01:51:24;18.30;;;10.20;;
19024;SDS011;9645;51.448;6.260;2023-09-08T01:53:51;19.50;;;11.50;;
19024;SDS011;9645;51.448;6.260;2023-09-08T01:56:18;19.60;;;12.47;;
19024;SDS011;9645;51.448;6.260;2023-09-08T01:58:44;16.43;;;10.90;;
19024;SDS011;9645;51.448;6.260;2023-09-08T02:01:13;17.03;;;11.23;;
19024;SDS011;9645;51.448;6.260;2023-09-08T02:03:40;24.50;;;10.63;;
19024;SDS011;9645;51.448;6.260;2023-09-08T02:06:07;14.67;;;10.50;;
19024;SDS011;9645;51.448;6.260;2023-09-08T02:08:34;16.00;;;10.63;;
19024;SDS011;9645;51.448;6.260;2023-09-08T02:11:00;21.63;;;10.47;;
19024;SDS011;9645;51.448;6.260;2023-09-08T02:13:28;20.43;;;11.13;;
19024;SDS011;9645;51.448;6.260;2023-09-08T02:15:55;23.13;;;10.40;;
19024;SDS011;9645;51.448;6.260;2023-09-08T02:18:25;22.63;;;10.17;;
19024;SDS011;9645;51.448;6.260;2023-09-08T02:20:53;17.40;;;10.83;;
19024;SDS011;9645;51.448;6.260;2023-09-08T02:23:20;24.80;;;11.13;;
19024;SDS011;9645;51.448;6.260;2023-09-08T02:25:48;19.60;;;10.23;;
19024;SDS011;9645;51.448;6.260;2023-09-08T02:28:15;16.93;;;10.53;;
19024;SDS011;9645;51.448;6.260;2023-09-08T02:30:42;14.43;;;10.90;;
19024;SDS011;9645;51.448;6.260;2023-09-08T02:33:09;16.20;;;11.00;;
19024;SDS011;9645;51.448;6.260;2023-09-08T02:35:38;21.77;;;10.30;;
19024;SDS011;9645;51.448;6.260;2023-09-08T02:38:05;15.00;;;10.67;;
19024;SDS011;9645;51.448;6.260;2023-09-08T02:40:32;18.80;;;10.40;;
19024;SDS011;9645;51.448;6.260;2023-09-08T02:42:59;13.10;;;9.23;;
19024;SDS011;9645;51.448;6.260;2023-09-08T02:45:26;18.57;;;11.07;;
19024;SDS011;9645;51.448;6.260;2023-09-08T02:47:53;18.53;;;10.60;;
19024;SDS011;9645;51.448;6.260;2023-09-08T02:50:21;17.73;;;10.17;;
19024;SDS011;9645;51.448;6.260;2023-09-08T02:52:51;16.47;;;9.63;;
19024;SDS011;9645;51.448;6.260;2023-09-08T02:55:18;13.87;;;9.17;;
19024;SDS011;9645;51.448;6.260;2023-09-08T02:57:45;14.90;;;9.70;;
19024;SDS011;9645;51.448;6.260;2023-09-08T03:00:12;20.50;;;9.67;;
19024;SDS011;9645;51.448;6.260;2023-09-08T03:02:40;14.07;;;9.80;;
19024;SDS011;9645;51.448;6.260;2023-09-08T03:05:07;19.77;;;10.50;;
19024;SDS011;9645;51.448;6.260;2023-09-08T03:07:34;21.87;;;9.20;;
19024;SDS011;9645;51.448;6.260;2023-09-08T03:10:04;13.83;;;8.83;;
19024;SDS011;9645;51.448;6.260;2023-09-08T03:12:32;18.43;;;10.37;;
19024;SDS011;9645;51.448;6.260;2023-09-08T03:15:00;14.77;;;9.47;;
19024;SDS011;9645;51.448;6.260;2023-09-08T03:17:27;16.30;;;10.43;;
19024;SDS011;9645;51.448;6.260;2023-09-08T03:19:54;17.70;;;11.30;;
19024;SDS011;9645;51.448;6.260;2023-09-08T03:22:21;15.87;;;9.97;;
19024;SDS011;9645;51.448;6.260;2023-09-08T03:24:49;19.33;;;9.73;;
19024;SDS011;9645;51.448;6.260;2023-09-08T03:27:18;26.73;;;11.73;;
19024;SDS011;9645;51.448;6.260;2023-09-08T03:29:45;17.97;;;10.57;;
19024;SDS011;9645;51.448;6.260;2023-09-08T03:32:14;18.53;;;10.10;;
19024;SDS011;9645;51.448;6.260;2023-09-08T03:34:41;18.73;;;12.37;;
19024;SDS011;9645;51.448;6.260;2023-09-08T03:37:08;17.37;;;9.87;;
19024;SDS011;9645;51.448;6.260;2023-09-08T03:39:35;15.03;;;10.20;;
19024;SDS011;9645;51.448;6.260;2023-09-08T03:42:03;16.13;;;9.70;;
19024;SDS011;9645;51.448;6.260;2023-09-08T03:44:31;17.50;;;10.60;;
19024;SDS011;9645;51.448;6.260;2023-09-08T03:46:58;18.93;;;11.53;;
19024;SDS011;9645;51.448;6.260;2023-09-08T03:49:25;16.87;;;10.77;;
19024;SDS011;9645;51.448;6.260;2023-09-08T03:51:52;16.47;;;10.80;;
19024;SDS011;9645;51.448;6.260;2023-09-08T03:54:19;16.30;;;9.57;;
19024;SDS011;9645;51.448;6.260;2023-09-08T03:56:46;19.53;;;10.90;;
19024;SDS011;9645;51.448;6.260;2023-09-08T03:59:13;17.97;;;10.77;;
19024;SDS011;9645;51.448;6.260;2023-09-08T04:01:41;19.70;;;9.90;;
19024;SDS011;9645;51.448;6.260;2023-09-08T04:04:08;19.50;;;10.50;;
19024;SDS011;9645;51.448;6.260;2023-09-08T04:06:35;18.67;;;10.77;;
19024;SDS011;9645;51.448;6.260;2023-09-08T04:09:02;16.37;;;10.53;;
19024;SDS011;9645;51.448;6.260;2023-09-08T04:11:29;19.47;;;10.30;;
19024;SDS011;9645;51.448;6.260;2023-09-08T04:13:56;18.00;;;11.07;;
19024;SDS011;9645;51.448;6.260;2023-09-08T04:16:23;18.07;;;10.70;;
19024;SDS011;9645;51.448;6.260;2023-09-08T04:18:53;17.67;;;10.53;;
19024;SDS011;9645;51.448;6.260;2023-09-08T04:21:20;16.70;;;10.70;;
19024;SDS011;9645;51.448;6.260;2023-09-08T04:23:47;19.13;;;11.20;;
19024;SDS011;9645;51.448;6.260;2023-09-08T04:26:14;21.70;;;11.47;;
19024;SDS011;9645;51.448;6.260;2023-09-08T04:28:41;18.37;;;11.27;;
19024;SDS011;9645;51.448;6.260;2023-09-08T04:31:08;15.30;;;10.67;;
19024;SDS011;9645;51.448;6.260;2023-09-08T04:33:35;17.97;;;10.90;;
19024;SDS011;9645;51.448;6.260;2023-09-08T04:36:06;16.97;;;10.27;;
19024;SDS011;9645;51.448;6.260;2023-09-08T04:38:33;30.10;;;11.87;;
19024;SDS011;9645;51.448;6.260;2023-09-08T04:41:00;26.07;;;11.20;;
19024;SDS011;9645;51.448;6.260;2023-09-08T04:43:27;18.80;;;10.30;;
19024;SDS011;9645;51.448;6.260;2023-09-08T04:45:54;18.40;;;10.30;;
19024;SDS011;9645;51.448;6.260;2023-09-08T04:48:21;16.23;;;10.77;;
19024;SDS011;9645;51.448;6.260;2023-09-08T04:50:48;19.50;;;11.57;;
19024;SDS011;9645;51.448;6.260;2023-09-08T04:53:17;22.87;;;12.07;;
19024;SDS011;9645;51.448;6.260;2023-09-08T04:55:44;19.43;;;11.77;;
19024;SDS011;9645;51.448;6.260;2023-09-08T04:58:12;20.53;;;11.60;;
19024;SDS011;9645;51.448;6.260;2023-09-08T05:00:39;17.63;;;11.20;;
19024;SDS011;9645;51.448;6.260;2023-09-08T05:03:06;25.50;;;10.70;;
19024;SDS011;9645;51.448;6.260;2023-09-08T05:05:33;16.10;;;10.70;;
19024;SDS011;9645;51.448;6.260;2023-09-08T05:08:00;18.20;;;11.17;;
19024;SDS011;9645;51.448;6.260;2023-09-08T05:10:28;19.33;;;11.33;;
19024;SDS011;9645;51.448;6.260;2023-09-08T05:12:55;21.20;;;11.20;;
19024;SDS011;9645;51.448;6.260;2023-09-08T05:15:22;16.77;;;10.20;;
19024;SDS011;9645;51.448;6.260;2023-09-08T05:17:50;22.47;;;11.07;;
19024;SDS011;9645;51.448;6.260;2023-09-08T05:20:17;18.30;;;11.03;;
19024;SDS011;9645;51.448;6.260;2023-09-08T05:22:44;19.73;;;11.57;;
19024;SDS011;9645;51.448;6.260;2023-09-08T05:25:11;19.00;;;11.10;;
19024;SDS011;9645;51.448;6.260;2023-09-08T05:27:39;19.17;;;10.57;;
19024;SDS011;9645;51.448;6.260;2023-09-08T05:30:07;18.93;;;10.93;;
19024;SDS011;9645;51.448;6.260;2023-09-08T05:32:34;17.43;;;10.20;;
19024;SDS011;9645;51.448;6.260;2023-09-08T05:35:01;18.57;;;10.30;;
19024;SDS011;9645;51.448;6.260;2023-09-08T05:37:28;15.27;;;9.60;;
19024;SDS011;9645;51.448;6.260;2023-09-08T05:39:55;19.63;;;10.87;;
19024;SDS011;9645;51.448;6.260;2023-09-08T05:42:22;14.37;;;9.43;;
19024;SDS011;9645;51.448;6.260;2023-09-08T05:44:50;19.37;;;10.27;;
19024;SDS011;9645;51.448;6.260;2023-09-08T05:47:19;20.00;;;10.20;;
19024;SDS011;9645;51.448;6.260;2023-09-08T05:49:46;14.10;;;9.53;;
19024;SDS011;9645;51.448;6.260;2023-09-08T05:52:13;20.87;;;10.93;;
19024;SDS011;9645;51.448;6.260;2023-09-08T05:54:40;17.03;;;9.33;;
19024;SDS011;9645;51.448;6.260;2023-09-08T05:57:07;14.67;;;9.53;;
19024;SDS011;9645;51.448;6.260;2023-09-08T05:59:34;19.37;;;10.13;;
19024;SDS011;9645;51.448;6.260;2023-09-08T06:02:03;15.07;;;9.43;;
19024;SDS011;9645;51.448;6.260;2023-09-08T06:04:30;15.23;;;10.20;;
19024;SDS011;9645;51.448;6.260;2023-09-08T06:06:58;23.10;;;10.30;;
19024;SDS011;9645;51.448;6.260;2023-09-08T06:09:24;15.70;;;8.97;;
19024;SDS011;9645;51.448;6.260;2023-09-08T06:11:51;17.23;;;10.43;;
19024;SDS011;9645;51.448;6.260;2023-09-08T06:14:18;13.97;;;9.53;;
19024;SDS011;9645;51.448;6.260;2023-09-08T06:16:45;17.30;;;10.33;;
19024;SDS011;9645;51.448;6.260;2023-09-08T06:19:13;20.93;;;9.93;;
19024;SDS011;9645;51.448;6.260;2023-09-08T06:21:40;13.80;;;9.93;;
19024;SDS011;9645;51.448;6.260;2023-09-08T06:24:07;20.83;;;10.80;;
19024;SDS011;9645;51.448;6.260;2023-09-08T06:26:34;18.63;;;9.43;;
19024;SDS011;9645;51.448;6.260;2023-09-08T06:29:03;13.70;;;9.03;;
19024;SDS011;9645;51.448;6.260;2023-09-08T06:31:30;16.90;;;9.90;;
19024;SDS011;9645;51.448;6.260;2023-09-08T06:33:58;20.83;;;10.17;;
19024;SDS011;9645;51.448;6.260;2023-09-08T06:36:27;15.10;;;9.50;;
19024;SDS011;9645;51.448;6.260;2023-09-08T06:38:54;17.30;;;10.33;;
19024;SDS011;9645;51.448;6.260;2023-09-08T06:41:20;17.03;;;9.30;;
19024;SDS011;9645;51.448;6.260;2023-09-08T06:43:48;21.73;;;9.90;;
19024;SDS011;9645;51.448;6.260;2023-09-08T06:46:15;17.07;;;9.50;;
19024;SDS011;9645;51.448;6.260;2023-09-08T06:48:43;17.67;;;8.97;;
19024;SDS011;9645;51.448;6.260;2023-09-08T06:51:09;13.17;;;9.30;;
19024;SDS011;9645;51.448;6.260;2023-09-08T06:53:38;14.33;;;8.87;;
19024;SDS011;9645;51.448;6.260;2023-09-08T06:56:05;16.30;;;9.70;;
19024;SDS011;9645;51.448;6.260;2023-09-08T06:58:32;18.20;;;8.93;;
19024;SDS011;9645;51.448;6.260;2023-09-08T07:00:59;13.33;;;8.30;;
19024;SDS011;9645;51.448;6.260;2023-09-08T07:03:25;16.00;;;9.07;;
19024;SDS011;9645;51.448;6.260;2023-09-08T07:05:52;18.20;;;9.23;;
19024;SDS011;9645;51.448;6.260;2023-09-08T07:08:19;16.97;;;8.27;;
19024;SDS011;9645;51.448;6.260;2023-09-08T07:10:51;13.27;;;7.90;;
19024;SDS011;9645;51.448;6.260;2023-09-08T07:13:19;14.90;;;8.70;;
19024;SDS011;9645;51.448;6.260;2023-09-08T07:15:46;17.23;;;8.87;;
19024;SDS011;9645;51.448;6.260;2023-09-08T07:18:13;23.63;;;8.30;;
19024;SDS011;9645;51.448;6.260;2023-09-08T07:20:40;14.43;;;8.93;;
19024;SDS011;9645;51.448;6.260;2023-09-08T07:23:06;22.80;;;9.23;;
19024;SDS011;9645;51.448;6.260;2023-09-08T07:25:33;18.37;;;8.40;;
19024;SDS011;9645;51.448;6.260;2023-09-08T07:28:02;16.47;;;9.10;;
19024;SDS011;9645;51.448;6.260;2023-09-08T07:30:31;14.50;;;8.83;;
19024;SDS011;9645;51.448;6.260;2023-09-08T07:32:58;12.80;;;7.53;;
19024;SDS011;9645;51.448;6.260;2023-09-08T07:35:25;13.10;;;8.50;;
19024;SDS011;9645;51.448;6.260;2023-09-08T07:37:52;11.63;;;8.43;;
19024;SDS011;9645;51.448;6.260;2023-09-08T07:40:19;16.83;;;8.63;;
19024;SDS011;9645;51.448;6.260;2023-09-08T07:42:46;11.60;;;8.10;;
19024;SDS011;9645;51.448;6.260;2023-09-08T07:45:15;12.27;;;8.93;;
19024;SDS011;9645;51.448;6.260;2023-09-08T07:47:42;16.53;;;7.43;;
19024;SDS011;9645;51.448;6.260;2023-09-08T07:50:16;13.50;;;8.80;;
19024;SDS011;9645;51.448;6.260;2023-09-08T07:52:45;9.53;;;7.50;;
19024;SDS011;9645;51.448;6.260;2023-09-08T07:55:12;12.07;;;8.40;;
19024;SDS011;9645;51.448;6.260;2023-09-08T07:57:40;17.07;;;8.40;;
19024;SDS011;9645;51.448;6.260;2023-09-08T08:00:08;14.30;;;8.77;;
19024;SDS011;9645;51.448;6.260;2023-09-08T08:02:39;12.17;;;7.70;;
19024;SDS011;9645;51.448;6.260;2023-09-08T08:05:08;17.73;;;8.50;;
19024;SDS011;9645;51.448;6.260;2023-09-08T08:07:35;10.07;;;7.73;;
19024;SDS011;9645;51.448;6.260;2023-09-08T08:10:02;12.67;;;8.30;;
19024;SDS011;9645;51.448;6.260;2023-09-08T08:12:29;9.53;;;7.87;;
19024;SDS011;9645;51.448;6.260;2023-09-08T08:14:56;9.77;;;7.73;;
19024;SDS011;9645;51.448;6.260;2023-09-08T08:17:23;11.20;;;8.07;;
19024;SDS011;9645;51.448;6.260;2023-09-08T08:19:52;11.87;;;7.77;;
19024;SDS011;9645;51.448;6.260;2023-09-08T08:22:19;16.40;;;9.40;;
19024;SDS011;9645;51.448;6.260;2023-09-08T08:24:46;12.70;;;8.47;;
19024;SDS011;9645;51.448;6.260;2023-09-08T08:27:13;11.00;;;8.40;;
19024;SDS011;9645;51.448;6.260;2023-09-08T08:29:40;18.77;;;6.20;;
19024;SDS011;9645;51.448;6.260;2023-09-08T08:32:07;10.97;;;7.67;;
19024;SDS011;9645;51.448;6.260;2023-09-08T08:34:34;14.80;;;7.57;;
19024;SDS011;9645;51.448;6.260;2023-09-08T08:37:03;17.27;;;7.23;;
19024;SDS011;9645;51.448;6.260;2023-09-08T08:39:30;9.53;;;7.00;;
19024;SDS011;9645;51.448;6.260;2023-09-08T08:41:57;11.70;;;7.90;;
19024;SDS011;9645;51.448;6.260;2023-09-08T08:44:23;20.63;;;8.07;;
19024;SDS011;9645;51.448;6.260;2023-09-08T08:46:51;17.33;;;7.00;;
19024;SDS011;9645;51.448;6.260;2023-09-08T08:49:20;11.00;;;7.67;;
19024;SDS011;9645;51.448;6.260;2023-09-08T08:51:48;9.20;;;6.87;;
19024;SDS011;9645;51.448;6.260;2023-09-08T08:54:19;8.33;;;7.60;;
19024;SDS011;9645;51.448;6.260;2023-09-08T08:56:47;8.47;;;7.70;;
19024;SDS011;9645;51.448;6.260;2023-09-08T08:59:15;14.53;;;7.90;;
19024;SDS011;9645;51.448;6.260;2023-09-08T09:01:42;10.23;;;6.90;;
19024;SDS011;9645;51.448;6.260;2023-09-08T09:04:10;12.90;;;8.10;;
19024;SDS011;9645;51.448;6.260;2023-09-08T09:06:38;14.87;;;7.60;;
19024;SDS011;9645;51.448;6.260;2023-09-08T09:09:05;12.47;;;7.60;;
19024;SDS011;9645;51.448;6.260;2023-09-08T09:11:34;9.07;;;7.57;;
19024;SDS011;9645;51.448;6.260;2023-09-08T09:14:01;12.07;;;7.60;;
19024;SDS011;9645;51.448;6.260;2023-09-08T09:16:29;8.73;;;7.07;;
19024;SDS011;9645;51.448;6.260;2023-09-08T09:18:57;9.15;;;7.40;;
19024;SDS011;9645;51.448;6.260;2023-09-08T09:21:25;7.97;;;7.10;;
19024;SDS011;9645;51.448;6.260;2023-09-08T09:24:13;7.70;;;7.00;;
19024;SDS011;9645;51.448;6.260;2023-09-08T09:26:42;12.35;;;7.30;;
19024;SDS011;9645;51.448;6.260;2023-09-08T09:29:11;9.18;;;7.15;;
19024;SDS011;9645;51.448;6.260;2023-09-08T09:31:40;10.23;;;6.97;;
19024;SDS011;9645;51.448;6.260;2023-09-08T09:34:17;14.48;;;7.70;;
19024;SDS011;9645;51.448;6.260;2023-09-08T09:36:45;10.98;;;6.93;;
19024;SDS011;9645;51.448;6.260;2023-09-08T09:39:16;12.73;;;7.72;;
19024;SDS011;9645;51.448;6.260;2023-09-08T09:41:45;14.63;;;7.30;;
19024;SDS011;9645;51.448;6.260;2023-09-08T09:44:12;12.60;;;7.32;;
19024;SDS011;9645;51.448;6.260;2023-09-08T09:46:42;7.65;;;6.32;;
19024;SDS011;9645;51.448;6.260;2023-09-08T09:49:11;6.28;;;5.78;;
19024;SDS011;9645;51.448;6.260;2023-09-08T09:51:43;7.30;;;6.45;;
19024;SDS011;9645;51.448;6.260;2023-09-08T09:54:12;14.90;;;6.82;;
19024;SDS011;9645;51.448;6.260;2023-09-08T09:56:40;12.30;;;6.38;;
19024;SDS011;9645;51.448;6.260;2023-09-08T09:59:10;6.57;;;6.07;;
19024;SDS011;9645;51.448;6.260;2023-09-08T10:01:38;6.68;;;6.18;;
19024;SDS011;9645;51.448;6.260;2023-09-08T10:04:06;7.57;;;6.20;;
19024;SDS011;9645;51.448;6.260;2023-09-08T10:06:34;14.95;;;7.05;;
19024;SDS011;9645;51.448;6.260;2023-09-08T10:09:02;9.18;;;6.82;;
19024;SDS011;9645;51.448;6.260;2023-09-08T10:11:38;9.07;;;7.38;;
19024;SDS011;9645;51.448;6.260;2023-09-08T10:14:12;14.57;;;6.38;;
19024;SDS011;9645;51.448;6.260;2023-09-08T10:16:39;9.25;;;6.50;;
19024;SDS011;9645;51.448;6.260;2023-09-08T10:19:09;6.47;;;5.90;;
19024;SDS011;9645;51.448;6.260;2023-09-08T10:21:39;7.53;;;5.32;;
19024;SDS011;9645;51.448;6.260;2023-09-08T10:24:09;7.95;;;6.10;;
19024;SDS011;9645;51.448;6.260;2023-09-08T10:26:43;5.75;;;5.35;;
19024;SDS011;9645;51.448;6.260;2023-09-08T10:29:14;8.80;;;6.80;;
19024;SDS011;9645;51.448;6.260;2023-09-08T10:31:42;8.73;;;5.57;;
19024;SDS011;9645;51.448;6.260;2023-09-08T10:34:11;9.85;;;5.85;;
19024;SDS011;9645;51.448;6.260;2023-09-08T10:36:39;7.53;;;6.70;;
19024;SDS011;9645;51.448;6.260;2023-09-08T10:42:23;20.52;;;6.95;;
19024;SDS011;9645;51.448;6.260;2023-09-08T10:45:02;6.88;;;6.38;;
19024;SDS011;9645;51.448;6.260;2023-09-08T10:47:41;7.53;;;6.82;;
19024;SDS011;9645;51.448;6.260;2023-09-08T10:50:26;7.53;;;7.00;;
19024;SDS011;9645;51.448;6.260;2023-09-08T10:53:07;8.43;;;6.78;;
19024;SDS011;9645;51.448;6.260;2023-09-08T10:55:39;7.72;;;6.72;;
19024;SDS011;9645;51.448;6.260;2023-09-08T10:58:09;6.63;;;6.03;;
19024;SDS011;9645;51.448;6.260;2023-09-08T11:00:44;9.27;;;7.10;;
19024;SDS011;9645;51.448;6.260;2023-09-08T11:03:13;9.50;;;6.90;;
19024;SDS011;9645;51.448;6.260;2023-09-08T11:05:43;7.57;;;6.90;;
19024;SDS011;9645;51.448;6.260;2023-09-08T11:08:10;6.95;;;6.35;;
19024;SDS011;9645;51.448;6.260;2023-09-08T11:10:39;6.70;;;6.20;;
19024;SDS011;9645;51.448;6.260;2023-09-08T11:13:06;6.80;;;6.20;;
19024;SDS011;9645;51.448;6.260;2023-09-08T11:15:33;11.52;;;7.13;;
19024;SDS011;9645;51.448;6.260;2023-09-08T11:18:08;7.95;;;6.53;;
19024;SDS011;9645;51.448;6.260;2023-09-08T11:20:35;6.65;;;5.97;;
19024;SDS011;9645;51.448;6.260;2023-09-08T11:23:02;8.50;;;5.80;;
19024;SDS011;9645;51.448;6.260;2023-09-08T11:25:31;5.97;;;5.47;;
19024;SDS011;9645;51.448;6.260;2023-09-08T11:27:59;7.20;;;6.50;;
19024;SDS011;9645;51.448;6.260;2023-09-08T11:30:26;8.10;;;6.40;;
19024;SDS011;9645;51.448;6.260;2023-09-08T11:32:54;8.50;;;6.40;;
19024;SDS011;9645;51.448;6.260;2023-09-08T11:35:25;8.47;;;5.93;;
19024;SDS011;9645;51.448;6.260;2023-09-08T11:37:53;8.17;;;7.10;;
19024;SDS011;9645;51.448;6.260;2023-09-08T11:40:25;16.57;;;8.77;;
19024;SDS011;9645;51.448;6.260;2023-09-08T11:42:53;8.13;;;6.67;;
19024;SDS011;9645;51.448;6.260;2023-09-08T11:45:20;9.17;;;6.80;;
19024;SDS011;9645;51.448;6.260;2023-09-08T11:47:48;13.53;;;7.30;;
19024;SDS011;9645;51.448;6.260;2023-09-08T11:50:15;9.40;;;7.40;;
19024;SDS011;9645;51.448;6.260;2023-09-08T11:52:46;9.90;;;7.20;;
19024;SDS011;9645;51.448;6.260;2023-09-08T11:55:14;11.30;;;7.83;;
19024;SDS011;9645;51.448;6.260;2023-09-08T11:57:42;14.63;;;6.83;;
19024;SDS011;9645;51.448;6.260;2023-09-08T12:00:12;12.60;;;7.00;;
19024;SDS011;9645;51.448;6.260;2023-09-08T12:02:43;12.77;;;7.57;;
19024;SDS011;9645;51.448;6.260;2023-09-08T12:05:11;8.07;;;6.60;;
19024;SDS011;9645;51.448;6.260;2023-09-08T12:07:39;8.90;;;6.40;;
19024;SDS011;9645;51.448;6.260;2023-09-08T12:10:08;8.23;;;7.43;;
19024;SDS011;9645;51.448;6.260;2023-09-08T12:12:41;11.83;;;6.90;;
19024;SDS011;9645;51.448;6.260;2023-09-08T12:15:09;11.80;;;6.83;;
19024;SDS011;9645;51.448;6.260;2023-09-08T12:17:46;7.63;;;6.87;;
19024;SDS011;9645;51.448;6.260;2023-09-08T12:20:14;21.80;;;7.13;;
19024;SDS011;9645;51.448;6.260;2023-09-08T12:22:47;11.00;;;7.07;;
19024;SDS011;9645;51.448;6.260;2023-09-08T12:25:16;17.93;;;6.87;;
19024;SDS011;9645;51.448;6.260;2023-09-08T12:27:43;12.57;;;6.97;;
19024;SDS011;9645;51.448;6.260;2023-09-08T12:30:16;7.47;;;6.57;;
19024;SDS011;9645;51.448;6.260;2023-09-08T12:32:45;9.87;;;7.10;;
19024;SDS011;9645;51.448;6.260;2023-09-08T12:35:19;7.20;;;6.47;;
19024;SDS011;9645;51.448;6.260;2023-09-08T12:40:37;8.40;;;6.73;;
19024;SDS011;9645;51.448;6.260;2023-09-08T12:43:10;12.20;;;7.37;;
19024;SDS011;9645;51.448;6.260;2023-09-08T12:45:37;14.30;;;7.30;;
19024;SDS011;9645;51.448;6.260;2023-09-08T12:48:04;8.33;;;6.73;;
19024;SDS011;9645;51.448;6.260;2023-09-08T12:50:32;12.83;;;6.80;;
19024;SDS011;9645;51.448;6.260;2023-09-08T12:52:59;8.23;;;6.17;;
19024;SDS011;9645;51.448;6.260;2023-09-08T12:55:26;12.63;;;7.33;;
19024;SDS011;9645;51.448;6.260;2023-09-08T12:57:55;13.80;;;6.87;;
19024;SDS011;9645;51.448;6.260;2023-09-08T13:00:22;9.83;;;7.43;;
19024;SDS011;9645;51.448;6.260;2023-09-08T13:02:50;10.10;;;7.27;;
19024;SDS011;9645;51.448;6.260;2023-09-08T13:05:17;9.07;;;6.73;;
19024;SDS011;9645;51.448;6.260;2023-09-08T13:07:44;9.70;;;7.23;;
19024;SDS011;9645;51.448;6.260;2023-09-08T13:10:11;18.43;;;7.17;;
19024;SDS011;9645;51.448;6.260;2023-09-08T13:12:39;8.50;;;7.07;;
19024;SDS011;9645;51.448;6.260;2023-09-08T13:15:12;8.30;;;7.00;;
19024;SDS011;9645;51.448;6.260;2023-09-08T13:17:40;10.23;;;6.90;;
19024;SDS011;9645;51.448;6.260;2023-09-08T13:20:08;9.23;;;7.17;;
19024;SDS011;9645;51.448;6.260;2023-09-08T13:22:35;10.27;;;6.87;;
19024;SDS011;9645;51.448;6.260;2023-09-08T13:25:02;9.17;;;8.07;;
19024;SDS011;9645;51.448;6.260;2023-09-08T13:27:30;8.57;;;6.70;;
19024;SDS011;9645;51.448;6.260;2023-09-08T13:30:09;7.67;;;6.80;;
19024;SDS011;9645;51.448;6.260;2023-09-08T13:32:37;8.00;;;6.60;;
19024;SDS011;9645;51.448;6.260;2023-09-08T13:35:05;8.13;;;6.80;;
19024;SDS011;9645;51.448;6.260;2023-09-08T13:37:33;14.43;;;7.47;;
19024;SDS011;9645;51.448;6.260;2023-09-08T13:40:03;13.30;;;7.40;;
19024;SDS011;9645;51.448;6.260;2023-09-08T13:42:31;15.03;;;7.70;;
19024;SDS011;9645;51.448;6.260;2023-09-08T13:45:00;10.30;;;7.93;;
19024;SDS011;9645;51.448;6.260;2023-09-08T13:47:29;8.93;;;7.30;;
19024;SDS011;9645;51.448;6.260;2023-09-08T13:49:56;12.27;;;7.33;;
19024;SDS011;9645;51.448;6.260;2023-09-08T13:52:24;8.90;;;6.93;;
19024;SDS011;9645;51.448;6.260;2023-09-08T13:54:52;8.93;;;6.90;;
19024;SDS011;9645;51.448;6.260;2023-09-08T13:57:18;10.57;;;7.30;;
19024;SDS011;9645;51.448;6.260;2023-09-08T13:59:46;10.83;;;7.10;;
19024;SDS011;9645;51.448;6.260;2023-09-08T14:02:14;15.37;;;7.60;;
19024;SDS011;9645;51.448;6.260;2023-09-08T14:04:42;8.50;;;7.47;;
19024;SDS011;9645;51.448;6.260;2023-09-08T14:07:11;9.33;;;7.50;;
19024;SDS011;9645;51.448;6.260;2023-09-08T14:09:39;9.10;;;7.03;;
19024;SDS011;9645;51.448;6.260;2023-09-08T14:12:06;12.00;;;8.33;;
19024;SDS011;9645;51.448;6.260;2023-09-08T14:14:33;9.90;;;7.27;;
19024;SDS011;9645;51.448;6.260;2023-09-08T14:17:00;14.33;;;7.37;;
19024;SDS011;9645;51.448;6.260;2023-09-08T14:19:27;10.37;;;7.73;;
19024;SDS011;9645;51.448;6.260;2023-09-08T14:21:56;8.43;;;7.60;;
19024;SDS011;9645;51.448;6.260;2023-09-08T14:24:23;13.00;;;6.53;;
19024;SDS011;9645;51.448;6.260;2023-09-08T14:26:50;7.80;;;6.87;;
19024;SDS011;9645;51.448;6.260;2023-09-08T14:29:17;10.73;;;7.50;;
19024;SDS011;9645;51.448;6.260;2023-09-08T14:31:44;14.30;;;7.40;;
19024;SDS011;9645;51.448;6.260;2023-09-08T14:34:11;9.20;;;7.13;;
19024;SDS011;9645;51.448;6.260;2023-09-08T14:36:38;7.70;;;6.90;;
19024;SDS011;9645;51.448;6.260;2023-09-08T14:39:07;11.80;;;7.80;;
19024;SDS011;9645;51.448;6.260;2023-09-08T14:41:34;18.10;;;7.80;;
19024;SDS011;9645;51.448;6.260;2023-09-08T14:44:01;11.20;;;7.70;;
19024;SDS011;9645;51.448;6.260;2023-09-08T14:46:28;10.43;;;7.60;;
19024;SDS011;9645;51.448;6.260;2023-09-08T14:48:55;11.47;;;7.00;;
19024;SDS011;9645;51.448;6.260;2023-09-08T14:51:22;10.50;;;7.30;;
19024;SDS011;9645;51.448;6.260;2023-09-08T14:53:49;9.53;;;7.73;;
19024;SDS011;9645;51.448;6.260;2023-09-08T14:56:17;10.77;;;7.93;;
19024;SDS011;9645;51.448;6.260;2023-09-08T14:58:45;9.63;;;8.17;;
19024;SDS011;9645;51.448;6.260;2023-09-08T15:01:12;8.43;;;7.50;;